Time;durP1;ratioP1;P1;durP2;ratioP2;P2;SDS_P1;SDS_P2;PMS_P1;PMS_P2;Temp;Humidity;BMP_temperature;BMP_pressure;BME280_temperature;BME280_humidity;BME280_pressure;Samples;Min_cycle;Max_cycle;Signal;HPM_P1;HPM_P2
2023/12/27 00:00:39;;;;;;;2.60;1.90;;;20.90;39.60;;;;;;4963670;28;20073;-59
2023/12/27 00:03:05;;;;;;;3.53;1.77;;;20.90;39.50;;;;;;4962119;28;20031;-59
2023/12/27 00:05:31;;;;;;;4.38;2.13;;;20.90;39.50;;;;;;4967993;28;20038;-60
2023/12/27 00:07:57;;;;;;;3.50;2.13;;;20.90;39.50;;;;;;4962675;28;20031;-59
2023/12/27 00:10:22;;;;;;;3.00;1.90;;;20.90;39.50;;;;;;4969337;28;20498;-60
2023/12/27 00:12:48;;;;;;;3.65;2.00;;;20.90;39.50;;;;;;4964000;28;20117;-58
2023/12/27 00:15:14;;;;;;;2.95;1.88;;;20.80;39.40;;;;;;4959291;28;20466;-61
2023/12/27 00:17:40;;;;;;;3.80;1.90;;;20.90;39.40;;;;;;4964691;28;20035;-58
2023/12/27 00:20:06;;;;;;;3.38;2.10;;;20.90;39.40;;;;;;4966918;28;20342;-60
2023/12/27 00:22:32;;;;;;;2.40;1.35;;;20.90;39.40;;;;;;4966294;28;20434;-59
2023/12/27 00:24:59;;;;;;;3.05;2.03;;;20.90;39.40;;;;;;4966118;28;20097;-59
2023/12/27 00:27:25;;;;;;;3.50;1.98;;;20.80;39.30;;;;;;4968054;28;20027;-60
2023/12/27 00:29:50;;;;;;;2.70;1.67;;;20.80;39.30;;;;;;4968719;28;20197;-60
2023/12/27 00:32:17;;;;;;;2.83;2.00;;;20.80;39.20;;;;;;4960523;28;20035;-59
2023/12/27 00:34:43;;;;;;;3.28;1.98;;;20.80;39.20;;;;;;4965574;28;20027;-59
2023/12/27 00:37:09;;;;;;;3.85;1.92;;;20.80;39.20;;;;;;4970341;28;20167;-60
2023/12/27 00:39:35;;;;;;;2.92;1.90;;;20.80;39.20;;;;;;4968616;28;20527;-60
2023/12/27 00:42:01;;;;;;;2.85;1.60;;;20.80;39.20;;;;;;4964776;28;20148;-60
2023/12/27 00:44:28;;;;;;;2.92;2.15;;;20.80;39.20;;;;;;4971193;28;20106;-59
2023/12/27 00:46:53;;;;;;;4.13;1.90;;;20.80;39.10;;;;;;4968442;28;20411;-59
2023/12/27 00:49:19;;;;;;;2.28;1.60;;;20.80;39.10;;;;;;4962879;28;20118;-60
2023/12/27 00:51:45;;;;;;;2.67;1.80;;;20.80;39.00;;;;;;4962045;28;20041;-60
2023/12/27 00:54:11;;;;;;;2.58;1.60;;;20.80;39.00;;;;;;4962665;28;20031;-60
2023/12/27 00:56:39;;;;;;;2.53;1.70;;;20.80;39.00;;;;;;4966806;28;20117;-59
2023/12/27 00:59:06;;;;;;;2.80;1.73;;;20.80;39.00;;;;;;4964756;28;20090;-59
2023/12/27 01:01:32;;;;;;;3.53;2.03;;;20.80;39.00;;;;;;4966261;28;20031;-61
2023/12/27 01:03:58;;;;;;;2.58;1.60;;;20.70;38.90;;;;;;4962142;28;20033;-60
2023/12/27 01:06:24;;;;;;;3.50;1.95;;;20.70;38.90;;;;;;4960680;28;20042;-60
2023/12/27 01:08:50;;;;;;;3.25;1.88;;;20.70;38.90;;;;;;4963770;28;20450;-60
2023/12/27 01:11:17;;;;;;;2.47;1.67;;;20.70;38.80;;;;;;4965135;28;20027;-60
2023/12/27 01:13:44;;;;;;;2.97;1.80;;;20.70;38.80;;;;;;4948922;28;20027;-60
2023/12/27 01:16:10;;;;;;;1.98;1.50;;;20.70;38.80;;;;;;4963045;28;20108;-60
2023/12/27 01:18:35;;;;;;;2.50;1.60;;;20.70;38.80;;;;;;4961196;28;20036;-59
2023/12/27 01:21:01;;;;;;;3.10;2.33;;;20.70;38.80;;;;;;4965549;28;20474;-59
2023/12/27 01:23:27;;;;;;;2.42;1.67;;;20.70;38.80;;;;;;4954493;28;20446;-60
2023/12/27 01:25:54;;;;;;;3.53;1.98;;;20.70;38.70;;;;;;4964406;28;20035;-59
2023/12/27 01:28:20;;;;;;;2.40;1.77;;;20.70;38.70;;;;;;4962001;28;20031;-59
2023/12/27 01:30:46;;;;;;;3.28;2.15;;;20.70;38.70;;;;;;4963380;28;20032;-59
2023/12/27 01:33:11;;;;;;;2.85;2.00;;;20.70;38.70;;;;;;4969567;28;20110;-59
2023/12/27 01:35:38;;;;;;;3.47;2.08;;;20.60;38.60;;;;;;4966394;28;20460;-59
2023/12/27 01:38:03;;;;;;;2.33;1.55;;;20.60;38.70;;;;;;4965741;28;20031;-60
2023/12/27 01:40:30;;;;;;;3.30;1.77;;;20.60;38.70;;;;;;4963462;28;20590;-59
2023/12/27 01:42:56;;;;;;;2.72;1.65;;;20.70;38.80;;;;;;4965822;28;20438;-59
2023/12/27 01:45:21;;;;;;;3.35;1.88;;;20.70;38.70;;;;;;4964594;28;20047;-59
2023/12/27 01:47:48;;;;;;;2.70;1.60;;;20.60;38.70;;;;;;4963576;28;20042;-59
2023/12/27 01:50:14;;;;;;;2.72;1.85;;;20.60;38.70;;;;;;4965498;28;20027;-59
2023/12/27 01:52:41;;;;;;;3.65;1.77;;;20.60;38.60;;;;;;4963890;28;20105;-59
2023/12/27 01:55:09;;;;;;;2.65;1.60;;;20.60;38.70;;;;;;4967488;28;20031;-60
2023/12/27 01:57:40;;;;;;;3.22;1.80;;;20.60;38.60;;;;;;4967403;28;20062;-59
2023/12/27 02:00:08;;;;;;;3.22;2.25;;;20.60;38.60;;;;;;4963945;28;20045;-59
2023/12/27 02:02:39;;;;;;;2.60;1.70;;;20.60;38.70;;;;;;4966681;28;20031;-59
2023/12/27 02:05:05;;;;;;;2.95;1.80;;;20.60;38.70;;;;;;4964928;28;20114;-59
2023/12/27 02:07:31;;;;;;;2.40;1.90;;;20.60;38.70;;;;;;4968139;28;20057;-61
2023/12/27 02:09:58;;;;;;;2.22;1.52;;;20.50;38.60;;;;;;4966675;28;20020;-59
2023/12/27 02:12:28;;;;;;;3.38;1.88;;;20.50;38.60;;;;;;4974972;28;20023;-59
2023/12/27 02:14:54;;;;;;;2.78;1.63;;;20.60;38.70;;;;;;4969313;28;20033;-59
2023/12/27 02:17:21;;;;;;;3.08;1.73;;;20.60;38.70;;;;;;4966748;28;20034;-59
2023/12/27 02:19:47;;;;;;;2.13;1.38;;;20.50;38.60;;;;;;4965544;28;20422;-59
2023/12/27 02:22:22;;;;;;;2.28;1.30;;;20.50;38.60;;;;;;4966831;28;20085;-59
2023/12/27 02:24:53;;;;;;;2.72;1.60;;;20.50;38.60;;;;;;4963868;28;20042;-59
2023/12/27 02:27:20;;;;;;;2.50;1.38;;;20.50;38.60;;;;;;4946487;28;20211;-59
2023/12/27 02:29:46;;;;;;;2.15;1.70;;;20.50;38.70;;;;;;4968329;28;20346;-59
2023/12/27 02:32:11;;;;;;;3.42;1.70;;;20.50;38.60;;;;;;4965577;28;20038;-60
2023/12/27 02:34:37;;;;;;;3.50;1.98;;;20.50;38.70;;;;;;4962449;28;20041;-60
2023/12/27 02:37:03;;;;;;;3.45;1.88;;;20.50;38.70;;;;;;4967645;28;20449;-59
2023/12/27 02:39:29;;;;;;;2.40;1.58;;;20.50;38.70;;;;;;4968547;28;20124;-59
2023/12/27 02:41:55;;;;;;;2.72;1.63;;;20.50;38.70;;;;;;4959373;28;20023;-59
2023/12/27 02:44:20;;;;;;;2.90;1.50;;;20.50;38.70;;;;;;4968233;28;20538;-58
2023/12/27 02:46:46;;;;;;;2.97;1.58;;;20.50;38.70;;;;;;4964546;28;20120;-58
2023/12/27 02:49:12;;;;;;;2.38;1.60;;;20.50;38.70;;;;;;4966563;28;20031;-59
2023/12/27 02:51:38;;;;;;;2.88;1.40;;;20.40;38.60;;;;;;4964775;28;20027;-58
2023/12/27 02:54:04;;;;;;;3.58;1.77;;;20.50;38.70;;;;;;4964479;28;20429;-58
2023/12/27 02:56:29;;;;;;;2.22;1.52;;;20.50;38.70;;;;;;4960115;28;20031;-58
2023/12/27 02:58:55;;;;;;;2.72;1.45;;;20.50;38.70;;;;;;4969734;28;20031;-60
2023/12/27 03:01:21;;;;;;;3.17;1.42;;;20.50;38.70;;;;;;4964944;28;20109;-58
2023/12/27 03:03:47;;;;;;;2.40;1.48;;;20.50;38.70;;;;;;4965437;28;20049;-58
2023/12/27 03:06:13;;;;;;;1.80;1.20;;;20.50;38.70;;;;;;4963361;28;20050;-59
2023/12/27 03:08:39;;;;;;;1.95;1.35;;;20.40;38.70;;;;;;4967460;28;20054;-59
2023/12/27 03:11:06;;;;;;;2.80;1.48;;;20.40;38.70;;;;;;4966892;28;20051;-58
2023/12/27 03:13:34;;;;;;;2.47;1.30;;;20.40;38.70;;;;;;4961287;28;20104;-58
2023/12/27 03:16:06;;;;;;;2.90;1.50;;;20.40;38.70;;;;;;4967727;28;20035;-59
2023/12/27 03:18:33;;;;;;;2.60;1.48;;;20.40;38.70;;;;;;4964973;28;20034;-59
2023/12/27 03:20:59;;;;;;;2.63;1.50;;;20.40;38.70;;;;;;4962134;28;20045;-59
2023/12/27 03:23:25;;;;;;;2.80;1.45;;;20.40;38.80;;;;;;4965020;28;20051;-58
2023/12/27 03:25:51;;;;;;;2.30;1.35;;;20.40;38.80;;;;;;4967002;28;20323;-56
2023/12/27 03:28:16;;;;;;;2.45;1.30;;;20.40;38.80;;;;;;4966530;28;20034;-59
2023/12/27 03:30:42;;;;;;;2.85;1.50;;;20.30;38.80;;;;;;4965974;28;20027;-58
2023/12/27 03:33:08;;;;;;;2.72;1.40;;;20.40;38.90;;;;;;4964911;28;20023;-59
2023/12/27 03:35:34;;;;;;;2.85;1.48;;;20.40;38.80;;;;;;4967275;28;20081;-60
2023/12/27 03:38:00;;;;;;;2.47;1.48;;;20.30;38.80;;;;;;4966106;28;20027;-58
2023/12/27 03:40:25;;;;;;;1.98;1.25;;;20.30;38.80;;;;;;4967230;28;20323;-60
2023/12/27 03:42:51;;;;;;;2.60;1.35;;;20.30;38.80;;;;;;4965831;28;20070;-60
2023/12/27 03:45:18;;;;;;;2.30;1.15;;;20.30;38.80;;;;;;4962619;28;20483;-57
2023/12/27 03:47:46;;;;;;;2.03;1.33;;;20.30;38.90;;;;;;4965479;28;20526;-57
2023/12/27 03:50:12;;;;;;;2.50;1.35;;;20.30;38.90;;;;;;4964902;28;20047;-60
2023/12/27 03:52:38;;;;;;;2.83;1.40;;;20.30;38.90;;;;;;4967525;28;20031;-57
2023/12/27 03:55:05;;;;;;;2.15;1.30;;;20.30;38.90;;;;;;4967697;28;20079;-58
2023/12/27 03:57:31;;;;;;;2.30;1.30;;;20.30;39.50;;;;;;4965084;28;20113;-58
2023/12/27 03:59:57;;;;;;;1.63;1.20;;;20.30;38.90;;;;;;4962450;28;20055;-59
2023/12/27 04:02:22;;;;;;;2.88;1.30;;;20.30;38.90;;;;;;4967062;28;20034;-60
2023/12/27 04:04:48;;;;;;;2.38;1.27;;;20.30;39.50;;;;;;4966612;28;20035;-59
2023/12/27 04:07:14;;;;;;;2.08;1.27;;;20.30;38.90;;;;;;4965507;28;20045;-59
2023/12/27 04:09:40;;;;;;;2.22;1.38;;;20.30;38.90;;;;;;4965743;28;20027;-59
2023/12/27 04:12:07;;;;;;;2.30;1.20;;;20.30;38.90;;;;;;4964583;28;20030;-59
2023/12/27 04:14:33;;;;;;;2.30;1.30;;;20.30;38.90;;;;;;4964561;28;20050;-59
2023/12/27 04:16:59;;;;;;;2.28;1.38;;;20.30;39.00;;;;;;4963581;28;20027;-60
2023/12/27 04:19:25;;;;;;;2.42;1.27;;;20.30;38.90;;;;;;4962782;28;20606;-59
2023/12/27 04:21:51;;;;;;;2.20;1.17;;;20.30;38.90;;;;;;4962779;28;20154;-61
2023/12/27 04:24:16;;;;;;;1.98;1.27;;;20.30;38.90;;;;;;4966287;28;20454;-60
2023/12/27 04:26:42;;;;;;;1.48;1.08;;;20.30;38.90;;;;;;4968420;28;20105;-59
2023/12/27 04:29:09;;;;;;;2.95;1.52;;;20.20;38.90;;;;;;4963075;28;20030;-59
2023/12/27 04:31:39;;;;;;;2.50;1.38;;;20.20;38.90;;;;;;4962071;28;20090;-61
2023/12/27 04:34:05;;;;;;;1.83;1.23;;;20.20;38.90;;;;;;4962617;28;20041;-59
2023/12/27 04:36:38;;;;;;;2.05;1.33;;;20.20;38.90;;;;;;4966655;28;20038;-59
2023/12/27 04:39:06;;;;;;;1.63;0.90;;;20.20;38.90;;;;;;4954309;28;20118;-59
2023/12/27 04:41:32;;;;;;;3.65;1.40;;;20.20;39.00;;;;;;4964896;28;20038;-60
2023/12/27 04:43:58;;;;;;;1.88;1.05;;;20.20;39.00;;;;;;4961443;28;20027;-60
2023/12/27 04:46:25;;;;;;;1.52;1.08;;;20.20;39.00;;;;;;4963422;28;20369;-59
2023/12/27 04:48:52;;;;;;;2.63;1.08;;;20.20;39.00;;;;;;4967830;28;20054;-60
2023/12/27 04:51:18;;;;;;;2.50;1.10;;;20.20;39.00;;;;;;4966076;28;20073;-59
2023/12/27 04:53:44;;;;;;;1.75;1.05;;;20.20;39.00;;;;;;4966626;28;20027;-59
2023/12/27 04:56:10;;;;;;;2.25;1.20;;;20.20;39.10;;;;;;4964726;28;20038;-59
2023/12/27 04:58:36;;;;;;;2.53;1.10;;;20.20;39.10;;;;;;4967467;28;20354;-60
2023/12/27 05:01:04;;;;;;;2.33;1.35;;;20.20;39.10;;;;;;4962996;28;20033;-59
2023/12/27 05:03:34;;;;;;;2.60;1.05;;;20.20;39.10;;;;;;4963321;28;20039;-59
2023/12/27 05:06:00;;;;;;;1.73;1.10;;;20.10;39.10;;;;;;4966064;28;20078;-59
2023/12/27 05:08:26;;;;;;;1.85;1.08;;;20.10;39.10;;;;;;4951302;28;20046;-58
2023/12/27 05:10:52;;;;;;;2.17;1.17;;;20.10;39.10;;;;;;4965778;28;20019;-57
2023/12/27 05:13:17;;;;;;;4.07;1.60;;;20.10;39.10;;;;;;4962543;28;20129;-60
2023/12/27 05:15:43;;;;;;;1.88;1.10;;;20.10;39.10;;;;;;4964448;28;21534;-59
2023/12/27 05:18:09;;;;;;;1.95;0.98;;;20.10;39.10;;;;;;4964771;28;20027;-59
2023/12/27 05:20:35;;;;;;;2.15;1.13;;;20.10;39.10;;;;;;4965168;28;20030;-59
2023/12/27 05:23:01;;;;;;;2.13;1.08;;;20.10;39.20;;;;;;4964858;28;20062;-60
2023/12/27 05:25:26;;;;;;;2.22;1.13;;;20.10;39.20;;;;;;4965774;28;20045;-59
2023/12/27 05:27:52;;;;;;;2.10;1.08;;;20.10;39.80;;;;;;4966763;28;20031;-58
2023/12/27 05:30:18;;;;;;;1.48;1.10;;;20.10;39.20;;;;;;4969823;28;20027;-59
2023/12/27 05:32:44;;;;;;;1.55;0.90;;;20.10;39.20;;;;;;4966171;28;20027;-57
2023/12/27 05:35:10;;;;;;;1.85;1.00;;;20.10;39.20;;;;;;4965429;28;20454;-60
2023/12/27 05:37:36;;;;;;;2.22;1.15;;;20.10;39.30;;;;;;4967006;28;20042;-59
2023/12/27 05:40:03;;;;;;;2.45;1.10;;;20.10;39.30;;;;;;4965109;28;20031;-52
2023/12/27 05:42:29;;;;;;;2.50;1.23;;;20.10;39.30;;;;;;4964778;28;20098;-59
2023/12/27 05:44:55;;;;;;;1.92;0.93;;;20.10;39.40;;;;;;4970636;28;20032;-59
2023/12/27 05:47:20;;;;;;;2.10;1.10;;;20.10;39.40;;;;;;4964370;28;20034;-59
2023/12/27 05:49:46;;;;;;;2.30;1.05;;;20.10;40.10;;;;;;4971016;28;20053;-59
2023/12/27 05:52:12;;;;;;;1.50;0.90;;;20.10;39.50;;;;;;4967708;28;20023;-58
2023/12/27 05:54:38;;;;;;;2.80;1.27;;;20.10;39.50;;;;;;4970999;28;20377;-59
2023/12/27 05:57:04;;;;;;;2.35;1.38;;;20.10;39.50;;;;;;4967975;28;20027;-60
2023/12/27 05:59:30;;;;;;;1.95;1.00;;;20.00;39.40;;;;;;4969367;28;20031;-59
2023/12/27 06:01:55;;;;;;;3.33;1.13;;;20.10;39.50;;;;;;4970339;28;20022;-59
2023/12/27 06:04:22;;;;;;;2.67;1.10;;;20.10;39.50;;;;;;4970394;28;20038;-60
2023/12/27 06:06:51;;;;;;;2.20;1.10;;;20.10;39.50;;;;;;4968042;28;20142;-59
2023/12/27 06:09:17;;;;;;;2.42;0.98;;;20.10;39.50;;;;;;4967064;28;20027;-60
2023/12/27 06:11:43;;;;;;;3.28;1.50;;;20.00;39.50;;;;;;4968665;28;20090;-59
2023/12/27 06:14:09;;;;;;;2.65;1.20;;;20.00;39.50;;;;;;4965796;28;20027;-59
2023/12/27 06:16:35;;;;;;;2.92;1.33;;;20.00;39.50;;;;;;4966727;28;20097;-59
2023/12/27 06:19:01;;;;;;;1.98;0.85;;;20.00;39.50;;;;;;4966165;28;20101;-59
2023/12/27 06:21:26;;;;;;;2.03;0.95;;;20.00;39.50;;;;;;4968598;28;20027;-58
2023/12/27 06:23:52;;;;;;;2.00;1.00;;;20.00;39.50;;;;;;4967589;28;20046;-59
2023/12/27 06:26:18;;;;;;;3.13;1.20;;;20.00;39.50;;;;;;4969846;28;20039;-58
2023/12/27 06:28:44;;;;;;;2.00;1.10;;;20.00;39.50;;;;;;4963703;28;20031;-59
2023/12/27 06:31:10;;;;;;;4.03;1.60;;;20.00;39.60;;;;;;4966803;28;20130;-59
2023/12/27 06:33:36;;;;;;;1.88;1.25;;;20.00;39.60;;;;;;4963212;28;20510;-57
2023/12/27 06:36:05;;;;;;;2.05;1.20;;;20.00;39.60;;;;;;4966939;28;20122;-59
2023/12/27 06:38:30;;;;;;;2.33;1.20;;;20.00;39.60;;;;;;4964697;28;20089;-59
2023/12/27 06:40:56;;;;;;;2.90;1.23;;;20.00;39.60;;;;;;4965052;28;20030;-59
2023/12/27 06:43:22;;;;;;;1.67;1.10;;;20.00;39.60;;;;;;4964791;28;20105;-59
2023/12/27 06:45:49;;;;;;;3.65;1.55;;;20.00;39.70;;;;;;4960701;28;20357;-59
2023/12/27 06:48:14;;;;;;;2.58;1.00;;;20.00;39.70;;;;;;4963624;28;20027;-59
2023/12/27 06:50:42;;;;;;;3.72;1.85;;;20.00;39.70;;;;;;4965723;28;20114;-59
2023/12/27 06:53:07;;;;;;;3.35;1.30;;;20.00;39.70;;;;;;4963658;28;20031;-59
2023/12/27 06:55:33;;;;;;;3.35;1.45;;;20.00;39.80;;;;;;4963345;28;20023;-57
2023/12/27 06:57:59;;;;;;;2.28;1.13;;;20.00;39.80;;;;;;4967775;28;20031;-59
2023/12/27 07:00:29;;;;;;;3.13;1.50;;;20.00;39.80;;;;;;4967536;28;20033;-59
2023/12/27 07:02:55;;;;;;;3.85;1.23;;;20.00;39.80;;;;;;4962377;28;20054;-59
2023/12/27 07:05:21;;;;;;;2.35;1.05;;;20.00;39.80;;;;;;4963578;28;20046;-59
2023/12/27 07:07:47;;;;;;;2.95;1.48;;;19.90;39.80;;;;;;4966193;28;20023;-59
2023/12/27 07:10:13;;;;;;;2.97;1.40;;;19.90;39.80;;;;;;4963143;28;20046;-58
2023/12/27 07:12:39;;;;;;;2.83;1.23;;;19.90;39.90;;;;;;4962720;28;20039;-59
2023/12/27 07:15:07;;;;;;;2.22;1.20;;;19.90;39.90;;;;;;4965267;28;20054;-57
2023/12/27 07:17:33;;;;;;;3.17;1.30;;;20.00;40.00;;;;;;4968445;28;20023;-59
2023/12/27 07:20:00;;;;;;;2.95;1.17;;;19.90;39.90;;;;;;4969142;28;20035;-60
2023/12/27 07:22:26;;;;;;;3.05;1.40;;;20.00;40.00;;;;;;4960714;28;20035;-60
2023/12/27 07:24:52;;;;;;;3.60;1.30;;;19.90;40.00;;;;;;4969260;28;20038;-59
2023/12/27 07:27:18;;;;;;;3.05;1.45;;;19.90;40.00;;;;;;4964301;28;20039;-59
2023/12/27 07:29:44;;;;;;;2.03;1.10;;;19.90;40.00;;;;;;4967005;28;20464;-59
2023/12/27 07:32:10;;;;;;;1.88;1.20;;;19.90;40.00;;;;;;4963871;28;20117;-59
2023/12/27 07:34:36;;;;;;;3.72;1.50;;;19.90;40.10;;;;;;4963672;28;20027;-59
2023/12/27 07:37:03;;;;;;;3.50;1.48;;;19.90;40.10;;;;;;4971186;28;20134;-59
2023/12/27 07:39:29;;;;;;;3.42;1.38;;;19.90;40.10;;;;;;4968115;28;20109;-59
2023/12/27 07:41:55;;;;;;;2.92;1.70;;;19.90;40.10;;;;;;4962031;28;20115;-59
2023/12/27 07:44:22;;;;;;;3.95;1.55;;;19.90;40.10;;;;;;4959564;28;20451;-59
2023/12/27 07:46:48;;;;;;;4.07;1.70;;;19.90;40.20;;;;;;4968484;28;20110;-57
2023/12/27 07:49:13;;;;;;;3.25;1.33;;;19.90;40.20;;;;;;4967139;28;20031;-59
2023/12/27 07:51:39;;;;;;;3.22;1.40;;;19.90;40.30;;;;;;4970858;28;20023;-59
2023/12/27 07:54:05;;;;;;;3.13;1.45;;;19.90;40.40;;;;;;4960678;28;20038;-58
2023/12/27 07:56:31;;;;;;;2.83;1.17;;;19.90;40.40;;;;;;4967199;28;20029;-58
2023/12/27 07:58:57;;;;;;;2.17;1.02;;;19.90;40.50;;;;;;4971747;28;20035;-59
2023/12/27 08:01:23;;;;;;;2.90;1.25;;;20.00;40.60;;;;;;4963073;28;20031;-59
2023/12/27 08:03:49;;;;;;;1.83;1.00;;;20.00;40.70;;;;;;4958916;28;20426;-57
2023/12/27 08:06:15;;;;;;;1.90;0.98;;;20.00;40.70;;;;;;4965807;28;20063;-58
2023/12/27 08:08:41;;;;;;;1.90;1.15;;;20.00;40.70;;;;;;4972227;28;20053;-57
2023/12/27 08:11:07;;;;;;;2.40;1.23;;;20.10;40.70;;;;;;4967121;28;20031;-57
2023/12/27 08:13:35;;;;;;;3.45;1.40;;;20.10;40.70;;;;;;4957045;28;20038;-59
2023/12/27 08:16:01;;;;;;;2.92;1.20;;;20.10;40.70;;;;;;4962542;28;20375;-59
2023/12/27 08:18:27;;;;;;;2.15;1.10;;;20.10;40.70;;;;;;4966389;28;20042;-59
2023/12/27 08:20:53;;;;;;;2.55;1.17;;;20.10;40.70;;;;;;4977178;28;20113;-57
2023/12/27 08:23:19;;;;;;;3.00;1.40;;;20.20;40.70;;;;;;4963992;28;20047;-55
2023/12/27 08:25:45;;;;;;;4.07;1.67;;;20.30;40.70;;;;;;4959125;28;20050;-57
2023/12/27 08:28:14;;;;;;;4.10;1.45;;;20.30;40.70;;;;;;4976938;28;20077;-57
2023/12/27 08:30:41;;;;;;;2.75;0.98;;;20.30;40.60;;;;;;4977102;28;20167;-58
2023/12/27 08:33:07;;;;;;;3.55;1.55;;;20.30;40.60;;;;;;4976950;28;20327;-58
2023/12/27 08:35:34;;;;;;;4.60;1.73;;;20.30;40.60;;;;;;4964095;28;20031;-58
2023/12/27 08:38:00;;;;;;;2.22;0.95;;;20.40;40.60;;;;;;4960030;28;20478;-56
2023/12/27 08:40:26;;;;;;;2.10;1.17;;;20.40;40.60;;;;;;4965183;28;20026;-58
2023/12/27 08:42:53;;;;;;;4.75;1.70;;;20.40;40.60;;;;;;4963784;28;20054;-57
2023/12/27 08:45:19;;;;;;;2.55;1.35;;;20.40;40.50;;;;;;4974315;28;20043;-60
2023/12/27 08:47:45;;;;;;;3.53;1.35;;;20.50;40.50;;;;;;4960696;28;20023;-57
2023/12/27 08:50:12;;;;;;;1.38;0.98;;;20.50;40.50;;;;;;4964177;28;20110;-56
2023/12/27 08:52:38;;;;;;;2.50;1.20;;;20.50;40.40;;;;;;4970420;28;20031;-54
2023/12/27 08:55:12;;;;;;;2.50;1.00;;;20.60;40.50;;;;;;4975421;28;20097;-57
2023/12/27 08:57:38;;;;;;;2.00;1.02;;;20.60;40.50;;;;;;4969162;28;20038;-57
2023/12/27 09:00:10;;;;;;;2.00;1.08;;;20.60;40.40;;;;;;4972315;28;20311;-59
2023/12/27 09:02:40;;;;;;;2.03;1.10;;;20.70;40.50;;;;;;4970730;28;20045;-55
2023/12/27 09:05:07;;;;;;;2.83;1.00;;;20.70;40.40;;;;;;4976723;28;20077;-58
2023/12/27 09:07:33;;;;;;;2.53;1.10;;;20.70;40.40;;;;;;4975267;28;20027;-59
2023/12/27 09:10:01;;;;;;;2.38;1.20;;;20.70;40.30;;;;;;4992113;28;20034;-58
2023/12/27 09:12:27;;;;;;;2.38;1.20;;;20.70;40.40;;;;;;4980585;28;20023;-57
2023/12/27 09:14:53;;;;;;;2.10;1.05;;;20.80;40.40;;;;;;4962635;28;20078;-59
2023/12/27 09:17:19;;;;;;;2.55;0.98;;;20.80;40.40;;;;;;4963403;28;20031;-61
2023/12/27 09:19:46;;;;;;;2.10;0.90;;;20.80;40.50;;;;;;4966684;28;20031;-59
2023/12/27 09:22:12;;;;;;;2.20;0.82;;;20.80;40.40;;;;;;4976196;28;20117;-60
2023/12/27 09:24:41;;;;;;;2.33;1.02;;;20.80;40.40;;;;;;4975978;28;20089;-60
2023/12/27 09:27:07;;;;;;;2.08;0.80;;;20.80;40.50;;;;;;4975419;28;20114;-60
2023/12/27 09:29:33;;;;;;;2.38;1.05;;;20.90;40.50;;;;;;4976476;28;20406;-58
2023/12/27 09:31:59;;;;;;;1.90;0.90;;;20.80;40.40;;;;;;4976921;28;20030;-60
2023/12/27 09:34:25;;;;;;;1.95;0.90;;;20.80;40.40;;;;;;4968750;28;20024;-60
2023/12/27 09:36:50;;;;;;;1.60;0.80;;;20.90;40.50;;;;;;4957191;29;20114;-59
2023/12/27 09:39:16;;;;;;;2.28;1.20;;;20.90;40.40;;;;;;4957121;28;20027;-60
2023/12/27 09:41:43;;;;;;;2.58;0.90;;;20.90;40.40;;;;;;4956985;28;20046;-59
2023/12/27 09:44:12;;;;;;;1.98;1.00;;;20.90;40.40;;;;;;4957232;28;20051;-59
2023/12/27 09:46:39;;;;;;;1.15;0.60;;;20.90;40.40;;;;;;4955781;29;20364;-59
2023/12/27 09:49:08;;;;;;;1.70;0.90;;;20.90;40.40;;;;;;4956677;28;20379;-59
2023/12/27 09:51:35;;;;;;;1.33;0.65;;;20.90;40.40;;;;;;4957335;28;20035;-59
2023/12/27 09:54:01;;;;;;;1.85;0.77;;;20.90;40.40;;;;;;4955945;29;20358;-60
2023/12/27 09:56:30;;;;;;;1.35;0.73;;;20.90;40.40;;;;;;4956794;28;20035;-59
2023/12/27 09:59:01;;;;;;;1.45;0.95;;;20.90;40.40;;;;;;4956806;28;20034;-60
2023/12/27 10:01:30;;;;;;;1.20;0.70;;;20.90;40.50;;;;;;4965353;28;20081;-59
2023/12/27 10:04:06;;;;;;;1.10;0.73;;;20.90;40.50;;;;;;4995086;28;20030;-59
2023/12/27 10:06:38;;;;;;;1.40;0.70;;;20.90;40.50;;;;;;4995336;28;20102;-60
2023/12/27 10:09:05;;;;;;;0.98;0.70;;;20.90;40.50;;;;;;4969573;28;20032;-59
2023/12/27 10:11:31;;;;;;;0.98;0.60;;;20.90;40.60;;;;;;4956923;28;20102;-59
2023/12/27 10:13:57;;;;;;;2.90;0.80;;;20.90;40.60;;;;;;4960118;28;20035;-60
2023/12/27 10:16:23;;;;;;;1.30;0.70;;;20.90;40.60;;;;;;4959952;29;20031;-60
2023/12/27 10:18:49;;;;;;;0.95;0.50;;;20.90;40.70;;;;;;4960297;29;20113;-59
2023/12/27 10:21:18;;;;;;;1.15;0.73;;;20.90;40.60;;;;;;4960138;28;20035;-58
2023/12/27 10:23:44;;;;;;;1.00;0.60;;;20.90;40.70;;;;;;4958800;29;20443;-58
2023/12/27 10:26:10;;;;;;;1.65;0.70;;;20.90;40.70;;;;;;4973036;28;20047;-57
2023/12/27 10:28:36;;;;;;;1.48;0.82;;;20.90;40.70;;;;;;4979372;28;20097;-59
2023/12/27 10:31:05;;;;;;;0.93;0.60;;;20.90;40.80;;;;;;4979294;28;20031;-59
2023/12/27 10:33:44;;;;;;;1.15;0.75;;;20.90;40.80;;;;;;4977842;28;20077;-59
2023/12/27 10:36:10;;;;;;;1.05;0.68;;;20.90;40.80;;;;;;4978899;28;20081;-59
2023/12/27 10:38:37;;;;;;;1.38;0.70;;;20.90;40.90;;;;;;4978752;28;20063;-60
2023/12/27 10:41:05;;;;;;;1.35;0.70;;;20.90;40.90;;;;;;4979768;28;20041;-60
2023/12/27 10:43:34;;;;;;;0.98;0.63;;;20.90;40.90;;;;;;4977887;28;20030;-60
2023/12/27 10:46:06;;;;;;;1.17;0.68;;;20.90;41.00;;;;;;4979064;28;20082;-60
2023/12/27 10:48:37;;;;;;;1.02;0.55;;;20.90;41.00;;;;;;4976769;28;20038;-60
2023/12/27 10:51:04;;;;;;;1.63;0.70;;;20.90;41.00;;;;;;4976795;28;20038;-56
2023/12/27 10:53:34;;;;;;;1.70;0.75;;;20.90;41.10;;;;;;4978231;28;20039;-60
2023/12/27 10:56:05;;;;;;;1.50;0.65;;;20.90;41.40;;;;;;4964286;28;20394;-59
2023/12/27 10:58:31;;;;;;;1.45;0.63;;;20.90;41.50;;;;;;4959793;28;20486;-60
2023/12/27 11:00:58;;;;;;;1.00;0.80;;;20.90;41.70;;;;;;4959430;28;20058;-59
2023/12/27 11:03:28;;;;;;;2.67;0.73;;;20.90;41.70;;;;;;4959278;28;20038;-60
2023/12/27 11:05:55;;;;;;;1.17;0.60;;;20.90;41.80;;;;;;4959385;28;20043;-59
2023/12/27 11:08:24;;;;;;;1.88;0.68;;;20.90;41.80;;;;;;4973399;28;20089;-59
2023/12/27 11:10:51;;;;;;;1.10;0.65;;;20.90;41.90;;;;;;4962577;28;20035;-60
2023/12/27 11:13:19;;;;;;;1.90;0.70;;;20.90;41.90;;;;;;4976359;28;20023;-59
2023/12/27 11:15:46;;;;;;;0.63;0.40;;;20.90;41.90;;;;;;4975679;28;20031;-60
2023/12/27 11:18:12;;;;;;;1.23;0.68;;;20.90;41.90;;;;;;4959053;28;20063;-59
2023/12/27 11:20:39;;;;;;;1.10;0.68;;;20.90;41.90;;;;;;4963301;28;20039;-60
2023/12/27 11:23:06;;;;;;;1.58;0.60;;;20.90;41.90;;;;;;4968136;28;20039;-59
2023/12/27 11:25:32;;;;;;;0.82;0.43;;;20.90;41.90;;;;;;4964620;28;20371;-60
2023/12/27 11:27:59;;;;;;;0.70;0.57;;;20.90;42.50;;;;;;4966951;28;20031;-59
2023/12/27 11:30:28;;;;;;;0.88;0.50;;;20.90;42.00;;;;;;4968602;28;20453;-56
2023/12/27 11:32:54;;;;;;;2.55;0.52;;;20.90;42.10;;;;;;4965535;28;20035;-56
2023/12/27 11:35:24;;;;;;;2.15;0.75;;;20.90;42.20;;;;;;4972115;28;20421;-53
2023/12/27 11:38:12;;;;;;;2.25;0.80;;;20.90;42.20;;;;;;4958077;28;20470;-56
2023/12/27 11:40:39;;;;;;;1.02;0.60;;;20.90;42.20;;;;;;4962342;28;20034;-53
2023/12/27 11:43:07;;;;;;;1.40;0.50;;;20.90;42.20;;;;;;4957267;28;20039;-57
2023/12/27 11:45:58;;;;;;;0.90;0.60;;;20.90;42.20;;;;;;4960609;28;20094;-57
2023/12/27 11:48:27;;;;;;;1.08;0.70;;;20.90;42.20;;;;;;4960145;28;20062;-60
2023/12/27 11:50:57;;;;;;;0.98;0.65;;;20.90;42.30;;;;;;4968283;28;20039;-58
2023/12/27 11:53:26;;;;;;;0.98;0.70;;;20.90;42.40;;;;;;4959960;28;20157;-57
2023/12/27 11:55:52;;;;;;;1.20;0.70;;;20.90;42.40;;;;;;4958754;28;20406;-55
2023/12/27 11:58:38;;;;;;;1.00;0.50;;;20.90;42.40;;;;;;4968439;28;20038;-58
2023/12/27 12:01:30;;;;;;;1.35;0.80;;;20.90;42.40;;;;;;4968055;28;20046;-53
2023/12/27 12:04:20;;;;;;;0.75;0.50;;;20.90;42.40;;;;;;4955238;28;20047;-58
2023/12/27 12:06:55;;;;;;;0.98;0.50;;;20.80;42.40;;;;;;4972151;28;20205;-56
2023/12/27 12:09:36;;;;;;;1.33;0.60;;;20.80;42.40;;;;;;4965204;28;20042;-57
2023/12/27 12:12:15;;;;;;;1.17;0.50;;;20.80;42.40;;;;;;4967070;28;20019;-55
2023/12/27 12:14:41;;;;;;;0.40;0.35;;;20.80;42.50;;;;;;4958193;28;20446;-58
2023/12/27 12:17:08;;;;;;;0.88;0.60;;;20.80;42.70;;;;;;4969779;28;20374;-57
2023/12/27 12:19:35;;;;;;;1.00;0.68;;;20.80;42.80;;;;;;4972309;28;20471;-57
2023/12/27 12:22:02;;;;;;;0.90;0.45;;;20.90;42.90;;;;;;4991335;28;20038;-53
2023/12/27 12:28:21;;;;;;;2.45;0.70;;;21.00;42.90;;;;;;4974695;28;20393;-65
2023/12/27 12:30:47;;;;;;;0.70;0.40;;;21.10;42.70;;;;;;4971909;28;20027;-61
2023/12/27 12:33:13;;;;;;;1.52;0.70;;;21.30;42.70;;;;;;4965759;28;20027;-61
2023/12/27 12:35:40;;;;;;;3.67;0.50;;;21.30;42.50;;;;;;4967811;28;20027;-56
2023/12/27 12:38:06;;;;;;;0.70;0.40;;;21.50;42.40;;;;;;4960202;28;20023;-54
2023/12/27 12:40:57;;;;;;;2.90;0.52;;;21.50;42.20;;;;;;4976232;28;20136;-63
2023/12/27 12:43:23;;;;;;;1.42;0.50;;;21.60;42.20;;;;;;4970499;28;20026;-60
2023/12/27 12:45:49;;;;;;;0.80;0.50;;;21.60;42.20;;;;;;4958908;28;20098;-59
2023/12/27 12:48:16;;;;;;;1.08;0.50;;;21.60;42.30;;;;;;4968712;28;20394;-62
2023/12/27 12:50:42;;;;;;;0.55;0.43;;;21.50;42.30;;;;;;4973587;28;20039;-60